Time;durP1;ratioP1;P1;durP2;ratioP2;P2;SDS_P1;SDS_P2;PMS_P1;PMS_P2;Temp;Humidity;BMP_temperature;BMP_pressure;BME280_temperature;BME280_humidity;BME280_pressure;Samples;Min_cycle;Max_cycle;Signal;HPM_P1;HPM_P2
2022/06/06 05:12:32;;;;;;;;;;;;;;;17.22;75.58;100245.03;6278201;22;1343;-92
2022/06/06 05:15:13;;;;;;;;;;;;;;;17.26;75.17;100246.00;6251106;22;1289;-92
2022/06/06 05:17:53;;;;;;;;;;;;;;;17.29;73.53;100247.28;6251137;22;1144;-91
2022/06/06 05:20:31;;;;;;;;;;;;;;;17.31;73.29;100256.88;6250993;22;1953;-91
2022/06/06 05:23:19;;;;;;;;;;;;;;;17.27;73.54;100250.38;6251238;22;1155;-91
2022/06/06 05:25:47;;;;;;;;;;;;;;;17.39;72.75;100247.72;6251017;22;1326;-91
2022/06/06 05:28:18;;;;;;;;;;;;;;;17.39;73.36;100258.78;6251177;22;1411;-91
2022/06/06 05:30:49;;;;;;;;;;;;;;;17.40;74.74;100262.38;6278009;22;1030;-91
2022/06/06 05:33:43;;;;;;;;;;;;;;;17.44;74.24;100259.75;6251071;22;1138;-91
2022/06/06 05:36:14;;;;;;;;;;;;;;;17.33;73.57;100265.66;6244073;22;1175;-91
2022/06/06 05:38:58;;;;;;;;;;;;;;;17.27;73.09;100269.72;6251139;22;1924;-91
2022/06/06 05:41:42;;;;;;;;;;;;;;;17.32;73.63;100277.06;6250958;22;1187;-91
2022/06/06 05:44:12;;;;;;;;;;;;;;;17.27;72.49;100272.50;6250959;22;1356;-91
2022/06/06 05:46:44;;;;;;;;;;;;;;;17.36;72.36;100264.97;6251651;22;1297;-91
2022/06/06 05:49:30;;;;;;;;;;;;;;;17.50;73.30;100275.03;6250956;22;1192;-91
2022/06/06 05:51:55;;;;;;;;;;;;;;;17.50;74.39;100277.78;6275383;22;1485;-92
2022/06/06 05:54:46;;;;;;;;;;;;;;;17.46;74.27;100277.63;6250929;22;1273;-91
2022/06/06 05:57:29;;;;;;;;;;;;;;;17.47;74.25;100286.75;6219529;22;1132;-91
2022/06/06 06:00:06;;;;;;;;;;;;;;;17.55;73.67;100288.66;6250572;22;1884;-91
2022/06/06 06:02:47;;;;;;;;;;;;;;;17.65;73.45;100288.34;6250800;22;1307;-92
2022/06/06 06:05:15;;;;;;;;;;;;;;;17.66;74.67;100281.66;6250189;22;1415;-90
2022/06/06 06:07:52;;;;;;;;;;;;;;;17.56;72.35;100279.22;6250440;22;1308;-90
2022/06/06 06:10:17;;;;;;;;;;;;;;;17.70;71.82;100286.19;6251044;22;1404;-92
2022/06/06 06:12:42;;;;;;;;;;;;;;;17.63;73.48;100285.09;6250493;22;1150;-92
2022/06/06 06:15:15;;;;;;;;;;;;;;;17.50;74.03;100286.09;6250625;22;1282;-92
2022/06/06 06:17:40;;;;;;;;;;;;;;;17.45;74.63;100283.50;6250967;22;1328;-91
2022/06/06 06:20:13;;;;;;;;;;;;;;;17.51;73.67;100280.25;6250262;22;1888;-91
2022/06/06 06:22:53;;;;;;;;;;;;;;;17.62;71.47;100283.47;6250992;22;1295;-91
2022/06/06 06:25:18;;;;;;;;;;;;;;;17.84;72.45;100282.38;6277182;22;1192;-92
2022/06/06 06:27:45;;;;;;;;;;;;;;;17.84;72.23;100272.13;6250646;22;1167;-92
2022/06/06 06:30:30;;;;;;;;;;;;;;;17.86;71.23;100278.16;6250523;22;921;-92
2022/06/06 06:33:08;;;;;;;;;;;;;;;17.81;70.98;100272.78;6250826;22;1302;-91
2022/06/06 06:53:49;;;;;;;;;;;;;;;18.15;70.78;100285.59;6276978;22;1286;-91
2022/06/06 06:56:27;;;;;;;;;;;;;;;18.27;69.79;100290.44;6250464;22;1363;-92
2022/06/06 06:58:54;;;;;;;;;;;;;;;18.33;68.66;100287.09;6250692;22;1900;-91
2022/06/06 07:11:01;;;;;;;;;;;;;;;;;;;;;
2022/06/06 07:16:53;;;;;;;;;;;;;;;19.01;67.95;100279.34;6277791;22;1527;-93
2022/06/06 07:38:15;;;;;;;;;;;;;;;19.10;66.84;100291.19;6128538;23;605;-93
2022/06/06 07:47:39;;;;;;;;;;;;;;;;;;;;;
2022/06/06 07:53:49;;;;;;;;;;;;;;;18.93;63.50;100294.13;6275096;22;1257;-93
